sensor_id;sensor_type;location;lat;lon;timestamp;P1;durP1;ratioP1;P2;durP2;ratioP2
58306;SDS011;44116;50.884;4.768;2022-08-19T00:01:29;17.8;;;13.4;;
58306;SDS011;44116;50.884;4.768;2022-08-19T00:03:27;17.7;;;12.8;;
58306;SDS011;44116;50.884;4.768;2022-08-19T00:05:27;13.4;;;12.0;;
58306;SDS011;44116;50.884;4.768;2022-08-19T00:07:27;20.4;;;13.0;;
58306;SDS011;44116;50.884;4.768;2022-08-19T00:09:28;17.1;;;14.0;;
58306;SDS011;44116;50.884;4.768;2022-08-19T00:13:27;17.2;;;13.5;;
58306;SDS011;44116;50.884;4.768;2022-08-19T00:15:27;17.4;;;13.3;;
58306;SDS011;44116;50.884;4.768;2022-08-19T00:17:27;16.5;;;13.0;;
58306;SDS011;44116;50.884;4.768;2022-08-19T00:19:27;17.2;;;14.1;;
58306;SDS011;44116;50.884;4.768;2022-08-19T00:21:27;16.7;;;13.8;;
58306;SDS011;44116;50.884;4.768;2022-08-19T00:23:26;18.8;;;15.3;;
58306;SDS011;44116;50.884;4.768;2022-08-19T00:25:26;18.4;;;14.7;;
58306;SDS011;44116;50.884;4.768;2022-08-19T00:29:26;17.4;;;15.5;;
58306;SDS011;44116;50.884;4.768;2022-08-19T00:31:26;18.0;;;15.0;;
58306;SDS011;44116;50.884;4.768;2022-08-19T00:33:26;18.7;;;15.7;;
58306;SDS011;44116;50.884;4.768;2022-08-19T00:35:26;18.5;;;15.1;;
58306;SDS011;44116;50.884;4.768;2022-08-19T00:37:26;19.2;;;16.4;;
58306;SDS011;44116;50.884;4.768;2022-08-19T00:39:26;20.2;;;16.5;;
58306;SDS011;44116;50.884;4.768;2022-08-19T00:41:27;19.7;;;16.6;;
58306;SDS011;44116;50.884;4.768;2022-08-19T00:43:27;20.9;;;16.7;;
58306;SDS011;44116;50.884;4.768;2022-08-19T00:45:27;18.5;;;16.5;;
58306;SDS011;44116;50.884;4.768;2022-08-19T00:47:25;20.7;;;17.5;;
58306;SDS011;44116;50.884;4.768;2022-08-19T00:49:29;21.5;;;17.2;;
58306;SDS011;44116;50.884;4.768;2022-08-19T00:51:27;22.8;;;17.6;;
58306;SDS011;44116;50.884;4.768;2022-08-19T00:53:27;20.2;;;17.3;;
58306;SDS011;44116;50.884;4.768;2022-08-19T00:57:29;23.2;;;17.7;;
58306;SDS011;44116;50.884;4.768;2022-08-19T00:59:27;22.0;;;18.1;;
58306;SDS011;44116;50.884;4.768;2022-08-19T01:01:25;25.0;;;19.4;;
58306;SDS011;44116;50.884;4.768;2022-08-19T01:03:25;24.4;;;19.8;;
58306;SDS011;44116;50.884;4.768;2022-08-19T01:05:27;26.1;;;20.8;;
58306;SDS011;44116;50.884;4.768;2022-08-19T01:07:25;26.8;;;21.3;;
58306;SDS011;44116;50.884;4.768;2022-08-19T01:09:25;32.2;;;24.6;;
58306;SDS011;44116;50.884;4.768;2022-08-19T01:11:25;30.6;;;23.2;;
58306;SDS011;44116;50.884;4.768;2022-08-19T01:13:29;34.6;;;25.5;;
58306;SDS011;44116;50.884;4.768;2022-08-19T01:15:27;34.9;;;26.0;;
58306;SDS011;44116;50.884;4.768;2022-08-19T01:17:25;33.8;;;25.6;;
58306;SDS011;44116;50.884;4.768;2022-08-19T01:19:29;37.3;;;28.0;;
58306;SDS011;44116;50.884;4.768;2022-08-19T01:21:28;39.3;;;29.2;;
58306;SDS011;44116;50.884;4.768;2022-08-19T01:23:24;36.3;;;27.5;;
58306;SDS011;44116;50.884;4.768;2022-08-19T01:25:28;43.0;;;29.7;;
58306;SDS011;44116;50.884;4.768;2022-08-19T01:27:24;42.5;;;30.0;;
58306;SDS011;44116;50.884;4.768;2022-08-19T01:29:24;40.3;;;29.6;;
58306;SDS011;44116;50.884;4.768;2022-08-19T01:31:27;41.8;;;30.2;;
58306;SDS011;44116;50.884;4.768;2022-08-19T01:33:23;46.0;;;31.8;;
58306;SDS011;44116;50.884;4.768;2022-08-19T01:35:25;47.0;;;34.0;;
58306;SDS011;44116;50.884;4.768;2022-08-19T01:37:23;50.4;;;34.2;;
58306;SDS011;44116;50.884;4.768;2022-08-19T01:39:24;45.3;;;32.0;;
58306;SDS011;44116;50.884;4.768;2022-08-19T01:41:24;47.4;;;32.7;;
58306;SDS011;44116;50.884;4.768;2022-08-19T01:43:23;49.3;;;33.9;;
58306;SDS011;44116;50.884;4.768;2022-08-19T01:45:26;49.0;;;34.3;;
58306;SDS011;44116;50.884;4.768;2022-08-19T01:47:23;51.9;;;35.3;;
58306;SDS011;44116;50.884;4.768;2022-08-19T01:49:24;48.5;;;34.6;;
58306;SDS011;44116;50.884;4.768;2022-08-19T01:51:23;49.4;;;34.0;;
58306;SDS011;44116;50.884;4.768;2022-08-19T01:53:23;53.5;;;35.0;;
58306;SDS011;44116;50.884;4.768;2022-08-19T01:55:23;50.6;;;34.8;;
58306;SDS011;44116;50.884;4.768;2022-08-19T01:57:23;56.2;;;35.3;;
58306;SDS011;44116;50.884;4.768;2022-08-19T01:59:23;51.3;;;34.7;;
58306;SDS011;44116;50.884;4.768;2022-08-19T02:01:23;51.8;;;34.1;;
58306;SDS011;44116;50.884;4.768;2022-08-19T02:03:23;52.8;;;36.1;;
58306;SDS011;44116;50.884;4.768;2022-08-19T02:05:22;51.3;;;34.9;;
58306;SDS011;44116;50.884;4.768;2022-08-19T02:07:22;51.9;;;34.7;;
58306;SDS011;44116;50.884;4.768;2022-08-19T02:09:22;52.8;;;36.0;;
58306;SDS011;44116;50.884;4.768;2022-08-19T02:11:26;53.1;;;35.7;;
58306;SDS011;44116;50.884;4.768;2022-08-19T02:13:23;51.4;;;35.5;;
58306;SDS011;44116;50.884;4.768;2022-08-19T02:15:22;51.0;;;34.1;;
58306;SDS011;44116;50.884;4.768;2022-08-19T02:17:22;48.8;;;33.8;;
58306;SDS011;44116;50.884;4.768;2022-08-19T02:19:21;55.8;;;36.7;;
58306;SDS011;44116;50.884;4.768;2022-08-19T02:21:23;54.6;;;37.0;;
58306;SDS011;44116;50.884;4.768;2022-08-19T02:23:21;56.5;;;37.4;;
58306;SDS011;44116;50.884;4.768;2022-08-19T02:25:21;54.6;;;36.3;;
58306;SDS011;44116;50.884;4.768;2022-08-19T02:27:22;56.9;;;37.0;;
58306;SDS011;44116;50.884;4.768;2022-08-19T02:29:21;55.9;;;36.6;;
58306;SDS011;44116;50.884;4.768;2022-08-19T02:31:23;57.5;;;36.9;;
58306;SDS011;44116;50.884;4.768;2022-08-19T02:33:21;54.8;;;36.2;;
58306;SDS011;44116;50.884;4.768;2022-08-19T02:35:22;56.9;;;36.6;;
58306;SDS011;44116;50.884;4.768;2022-08-19T02:37:21;54.8;;;37.0;;
58306;SDS011;44116;50.884;4.768;2022-08-19T02:39:21;57.1;;;37.2;;
58306;SDS011;44116;50.884;4.768;2022-08-19T02:41:23;55.5;;;37.4;;
58306;SDS011;44116;50.884;4.768;2022-08-19T02:43:21;56.1;;;37.2;;
58306;SDS011;44116;50.884;4.768;2022-08-19T02:45:21;55.6;;;36.0;;
58306;SDS011;44116;50.884;4.768;2022-08-19T02:47:20;54.7;;;35.6;;
58306;SDS011;44116;50.884;4.768;2022-08-19T02:49:20;54.3;;;37.2;;
58306;SDS011;44116;50.884;4.768;2022-08-19T02:51:22;59.9;;;37.9;;
58306;SDS011;44116;50.884;4.768;2022-08-19T02:53:21;56.8;;;37.8;;
58306;SDS011;44116;50.884;4.768;2022-08-19T02:55:20;59.1;;;37.3;;
58306;SDS011;44116;50.884;4.768;2022-08-19T02:57:20;58.8;;;38.0;;
58306;SDS011;44116;50.884;4.768;2022-08-19T02:59:20;51.9;;;34.3;;
58306;SDS011;44116;50.884;4.768;2022-08-19T03:01:21;56.7;;;36.3;;
58306;SDS011;44116;50.884;4.768;2022-08-19T03:03:20;53.6;;;35.4;;
58306;SDS011;44116;50.884;4.768;2022-08-19T03:05:19;52.2;;;34.2;;
58306;SDS011;44116;50.884;4.768;2022-08-19T03:07:19;51.9;;;34.5;;
58306;SDS011;44116;50.884;4.768;2022-08-19T03:09:20;56.7;;;35.8;;
58306;SDS011;44116;50.884;4.768;2022-08-19T03:11:22;57.3;;;37.4;;
58306;SDS011;44116;50.884;4.768;2022-08-19T03:13:19;54.2;;;36.2;;
58306;SDS011;44116;50.884;4.768;2022-08-19T03:15:19;51.9;;;35.0;;
58306;SDS011;44116;50.884;4.768;2022-08-19T03:17:19;53.6;;;36.2;;
58306;SDS011;44116;50.884;4.768;2022-08-19T03:19:20;53.5;;;35.7;;
58306;SDS011;44116;50.884;4.768;2022-08-19T03:21:21;53.9;;;36.1;;
58306;SDS011;44116;50.884;4.768;2022-08-19T03:23:18;52.7;;;34.8;;
58306;SDS011;44116;50.884;4.768;2022-08-19T03:25:18;52.9;;;35.3;;
58306;SDS011;44116;50.884;4.768;2022-08-19T03:27:18;48.6;;;33.5;;
58306;SDS011;44116;50.884;4.768;2022-08-19T03:29:19;48.6;;;33.6;;
58306;SDS011;44116;50.884;4.768;2022-08-19T03:31:20;47.7;;;32.2;;
58306;SDS011;44116;50.884;4.768;2022-08-19T03:33:18;46.3;;;31.8;;
58306;SDS011;44116;50.884;4.768;2022-08-19T03:35:18;49.7;;;31.9;;
58306;SDS011;44116;50.884;4.768;2022-08-19T03:37:18;48.3;;;32.1;;
58306;SDS011;44116;50.884;4.768;2022-08-19T03:39:18;49.9;;;32.2;;
58306;SDS011;44116;50.884;4.768;2022-08-19T03:41:20;47.8;;;31.4;;
58306;SDS011;44116;50.884;4.768;2022-08-19T03:45:17;50.4;;;33.5;;
58306;SDS011;44116;50.884;4.768;2022-08-19T03:47:17;45.5;;;30.3;;
58306;SDS011;44116;50.884;4.768;2022-08-19T03:49:18;49.0;;;32.1;;
58306;SDS011;44116;50.884;4.768;2022-08-19T03:51:20;47.9;;;31.2;;
58306;SDS011;44116;50.884;4.768;2022-08-19T03:53:17;45.1;;;29.5;;
58306;SDS011;44116;50.884;4.768;2022-08-19T03:55:17;49.6;;;33.1;;
58306;SDS011;44116;50.884;4.768;2022-08-19T03:57:16;50.5;;;33.7;;
58306;SDS011;44116;50.884;4.768;2022-08-19T03:59:19;48.3;;;32.4;;
58306;SDS011;44116;50.884;4.768;2022-08-19T04:01:20;45.8;;;31.8;;
58306;SDS011;44116;50.884;4.768;2022-08-19T04:03:16;44.7;;;30.6;;
58306;SDS011;44116;50.884;4.768;2022-08-19T04:05:16;45.2;;;31.5;;
58306;SDS011;44116;50.884;4.768;2022-08-19T04:07:16;45.4;;;30.3;;
58306;SDS011;44116;50.884;4.768;2022-08-19T04:11:18;41.4;;;29.4;;
58306;SDS011;44116;50.884;4.768;2022-08-19T04:13:17;43.6;;;29.7;;
58306;SDS011;44116;50.884;4.768;2022-08-19T04:15:15;42.0;;;29.6;;
58306;SDS011;44116;50.884;4.768;2022-08-19T04:17:15;40.3;;;28.7;;
58306;SDS011;44116;50.884;4.768;2022-08-19T04:19:16;40.1;;;28.3;;
58306;SDS011;44116;50.884;4.768;2022-08-19T04:21:17;42.0;;;27.7;;
58306;SDS011;44116;50.884;4.768;2022-08-19T04:23:14;41.8;;;29.5;;
58306;SDS011;44116;50.884;4.768;2022-08-19T04:25:14;38.6;;;27.9;;
58306;SDS011;44116;50.884;4.768;2022-08-19T04:27:14;41.3;;;28.7;;
58306;SDS011;44116;50.884;4.768;2022-08-19T04:29:17;41.1;;;27.8;;
58306;SDS011;44116;50.884;4.768;2022-08-19T04:31:16;36.1;;;26.1;;
58306;SDS011;44116;50.884;4.768;2022-08-19T04:33:16;36.9;;;26.7;;
58306;SDS011;44116;50.884;4.768;2022-08-19T04:35:14;41.5;;;27.8;;
58306;SDS011;44116;50.884;4.768;2022-08-19T04:37:14;38.4;;;27.2;;
58306;SDS011;44116;50.884;4.768;2022-08-19T04:39:15;41.7;;;27.9;;
58306;SDS011;44116;50.884;4.768;2022-08-19T04:41:14;40.1;;;27.2;;
58306;SDS011;44116;50.884;4.768;2022-08-19T04:43:13;38.8;;;26.5;;
58306;SDS011;44116;50.884;4.768;2022-08-19T04:45:14;36.4;;;25.7;;
58306;SDS011;44116;50.884;4.768;2022-08-19T04:47:13;37.4;;;25.8;;
58306;SDS011;44116;50.884;4.768;2022-08-19T04:49:14;37.1;;;25.2;;
58306;SDS011;44116;50.884;4.768;2022-08-19T04:51:13;35.5;;;24.8;;
58306;SDS011;44116;50.884;4.768;2022-08-19T04:53:13;36.1;;;24.2;;
58306;SDS011;44116;50.884;4.768;2022-08-19T04:55:13;37.0;;;24.9;;
58306;SDS011;44116;50.884;4.768;2022-08-19T04:57:12;34.6;;;23.5;;
58306;SDS011;44116;50.884;4.768;2022-08-19T04:59:12;35.2;;;23.8;;
58306;SDS011;44116;50.884;4.768;2022-08-19T05:01:17;32.4;;;23.5;;
58306;SDS011;44116;50.884;4.768;2022-08-19T05:03:12;35.6;;;24.0;;
58306;SDS011;44116;50.884;4.768;2022-08-19T05:05:12;33.2;;;23.3;;
58306;SDS011;44116;50.884;4.768;2022-08-19T05:07:12;32.5;;;23.0;;
58306;SDS011;44116;50.884;4.768;2022-08-19T05:09:12;32.2;;;23.1;;
58306;SDS011;44116;50.884;4.768;2022-08-19T05:11:14;34.2;;;23.6;;
58306;SDS011;44116;50.884;4.768;2022-08-19T05:13:11;33.6;;;22.8;;
58306;SDS011;44116;50.884;4.768;2022-08-19T05:15:11;33.3;;;22.5;;
58306;SDS011;44116;50.884;4.768;2022-08-19T05:17:12;33.0;;;22.7;;
58306;SDS011;44116;50.884;4.768;2022-08-19T05:19:11;32.5;;;22.0;;
58306;SDS011;44116;50.884;4.768;2022-08-19T05:21:14;34.8;;;23.3;;
58306;SDS011;44116;50.884;4.768;2022-08-19T05:23:11;33.1;;;22.7;;
58306;SDS011;44116;50.884;4.768;2022-08-19T05:25:13;33.8;;;22.1;;
58306;SDS011;44116;50.884;4.768;2022-08-19T05:27:10;32.1;;;21.7;;
58306;SDS011;44116;50.884;4.768;2022-08-19T05:29:10;31.2;;;21.5;;
58306;SDS011;44116;50.884;4.768;2022-08-19T05:31:10;33.5;;;22.3;;
58306;SDS011;44116;50.884;4.768;2022-08-19T05:33:10;29.9;;;19.8;;
58306;SDS011;44116;50.884;4.768;2022-08-19T05:35:11;36.0;;;20.9;;
58306;SDS011;44116;50.884;4.768;2022-08-19T05:37:10;31.0;;;20.0;;
58306;SDS011;44116;50.884;4.768;2022-08-19T05:39:12;33.4;;;20.3;;
58306;SDS011;44116;50.884;4.768;2022-08-19T05:41:12;29.9;;;19.7;;
58306;SDS011;44116;50.884;4.768;2022-08-19T05:43:10;30.3;;;20.0;;
58306;SDS011;44116;50.884;4.768;2022-08-19T05:45:10;31.7;;;19.4;;
58306;SDS011;44116;50.884;4.768;2022-08-19T05:47:11;32.2;;;19.8;;
58306;SDS011;44116;50.884;4.768;2022-08-19T05:49:10;31.6;;;20.1;;
58306;SDS011;44116;50.884;4.768;2022-08-19T05:51:09;34.7;;;20.6;;
58306;SDS011;44116;50.884;4.768;2022-08-19T05:53:09;31.7;;;20.7;;
58306;SDS011;44116;50.884;4.768;2022-08-19T05:55:09;36.6;;;21.5;;
58306;SDS011;44116;50.884;4.768;2022-08-19T05:57:10;31.1;;;20.4;;
58306;SDS011;44116;50.884;4.768;2022-08-19T05:59:09;29.7;;;19.6;;
58306;SDS011;44116;50.884;4.768;2022-08-19T06:01:10;31.3;;;20.0;;
58306;SDS011;44116;50.884;4.768;2022-08-19T06:03:08;33.6;;;20.5;;
58306;SDS011;44116;50.884;4.768;2022-08-19T06:05:09;32.0;;;20.3;;
58306;SDS011;44116;50.884;4.768;2022-08-19T06:07:09;29.2;;;19.2;;
58306;SDS011;44116;50.884;4.768;2022-08-19T06:09:08;29.5;;;20.4;;
58306;SDS011;44116;50.884;4.768;2022-08-19T06:11:13;34.7;;;21.5;;
58306;SDS011;44116;50.884;4.768;2022-08-19T06:15:11;27.4;;;19.9;;
58306;SDS011;44116;50.884;4.768;2022-08-19T06:17:08;34.2;;;21.8;;
58306;SDS011;44116;50.884;4.768;2022-08-19T06:19:10;34.2;;;21.0;;
58306;SDS011;44116;50.884;4.768;2022-08-19T06:21:07;33.0;;;22.0;;
58306;SDS011;44116;50.884;4.768;2022-08-19T06:23:08;35.0;;;22.2;;
58306;SDS011;44116;50.884;4.768;2022-08-19T06:25:08;33.3;;;21.7;;
58306;SDS011;44116;50.884;4.768;2022-08-19T06:27:08;37.4;;;23.1;;
58306;SDS011;44116;50.884;4.768;2022-08-19T06:29:08;34.8;;;22.0;;
58306;SDS011;44116;50.884;4.768;2022-08-19T06:31:08;33.3;;;20.2;;
58306;SDS011;44116;50.884;4.768;2022-08-19T06:33:07;32.2;;;20.6;;
58306;SDS011;44116;50.884;4.768;2022-08-19T06:37:07;30.1;;;20.4;;
58306;SDS011;44116;50.884;4.768;2022-08-19T06:39:09;32.5;;;20.0;;
58306;SDS011;44116;50.884;4.768;2022-08-19T06:43:06;29.0;;;19.5;;
58306;SDS011;44116;50.884;4.768;2022-08-19T06:45:07;28.6;;;19.2;;
58306;SDS011;44116;50.884;4.768;2022-08-19T06:47:09;30.4;;;18.1;;
58306;SDS011;44116;50.884;4.768;2022-08-19T06:49:06;25.9;;;18.0;;
58306;SDS011;44116;50.884;4.768;2022-08-19T06:51:06;29.0;;;17.9;;
58306;SDS011;44116;50.884;4.768;2022-08-19T06:53:06;26.3;;;16.6;;
58306;SDS011;44116;50.884;4.768;2022-08-19T06:55:06;27.6;;;16.2;;
58306;SDS011;44116;50.884;4.768;2022-08-19T06:57:06;27.1;;;15.8;;
58306;SDS011;44116;50.884;4.768;2022-08-19T06:59:08;25.1;;;15.6;;
58306;SDS011;44116;50.884;4.768;2022-08-19T07:03:06;24.7;;;15.7;;
58306;SDS011;44116;50.884;4.768;2022-08-19T07:05:07;21.5;;;14.5;;
58306;SDS011;44116;50.884;4.768;2022-08-19T07:07:08;22.1;;;14.0;;
58306;SDS011;44116;50.884;4.768;2022-08-19T07:09:08;19.8;;;13.7;;
58306;SDS011;44116;50.884;4.768;2022-08-19T07:11:07;20.1;;;13.9;;
58306;SDS011;44116;50.884;4.768;2022-08-19T07:13:06;21.5;;;13.8;;
58306;SDS011;44116;50.884;4.768;2022-08-19T07:15:06;21.1;;;12.7;;
58306;SDS011;44116;50.884;4.768;2022-08-19T07:17:10;23.5;;;12.1;;
58306;SDS011;44116;50.884;4.768;2022-08-19T07:19:06;17.8;;;12.2;;
58306;SDS011;44116;50.884;4.768;2022-08-19T07:21:07;18.6;;;12.0;;
58306;SDS011;44116;50.884;4.768;2022-08-19T07:23:06;17.0;;;11.6;;
58306;SDS011;44116;50.884;4.768;2022-08-19T07:25:07;18.8;;;11.5;;
58306;SDS011;44116;50.884;4.768;2022-08-19T07:27:06;16.7;;;11.7;;
58306;SDS011;44116;50.884;4.768;2022-08-19T07:29:06;16.5;;;10.8;;
58306;SDS011;44116;50.884;4.768;2022-08-19T07:31:06;16.2;;;10.2;;
58306;SDS011;44116;50.884;4.768;2022-08-19T07:33:05;17.6;;;11.2;;
58306;SDS011;44116;50.884;4.768;2022-08-19T07:35:06;18.9;;;10.5;;
58306;SDS011;44116;50.884;4.768;2022-08-19T07:37:06;13.9;;;9.5;;
58306;SDS011;44116;50.884;4.768;2022-08-19T07:39:08;17.3;;;10.9;;
58306;SDS011;44116;50.884;4.768;2022-08-19T07:41:06;15.6;;;9.8;;
58306;SDS011;44116;50.884;4.768;2022-08-19T07:43:05;12.2;;;8.6;;
58306;SDS011;44116;50.884;4.768;2022-08-19T07:45:06;15.2;;;9.9;;
58306;SDS011;44116;50.884;4.768;2022-08-19T07:47:05;14.8;;;9.0;;
58306;SDS011;44116;50.884;4.768;2022-08-19T07:49:07;14.8;;;9.1;;
58306;SDS011;44116;50.884;4.768;2022-08-19T07:51:07;15.6;;;8.8;;
58306;SDS011;44116;50.884;4.768;2022-08-19T07:57:06;11.7;;;8.5;;
58306;SDS011;44116;50.884;4.768;2022-08-19T07:59:05;12.8;;;7.8;;
58306;SDS011;44116;50.884;4.768;2022-08-19T08:01:06;14.2;;;8.2;;
58306;SDS011;44116;50.884;4.768;2022-08-19T08:03:05;12.7;;;7.4;;
58306;SDS011;44116;50.884;4.768;2022-08-19T08:05:05;11.4;;;7.0;;
58306;SDS011;44116;50.884;4.768;2022-08-19T08:07:06;10.7;;;6.7;;
58306;SDS011;44116;50.884;4.768;2022-08-19T08:09:05;13.5;;;6.4;;
58306;SDS011;44116;50.884;4.768;2022-08-19T08:11:05;14.2;;;6.1;;
58306;SDS011;44116;50.884;4.768;2022-08-19T08:13:05;8.2;;;5.9;;
58306;SDS011;44116;50.884;4.768;2022-08-19T08:15:09;9.3;;;6.0;;
58306;SDS011;44116;50.884;4.768;2022-08-19T08:17:06;11.7;;;5.7;;
58306;SDS011;44116;50.884;4.768;2022-08-19T08:19:05;14.2;;;5.3;;
58306;SDS011;44116;50.884;4.768;2022-08-19T08:21:05;11.6;;;4.6;;
58306;SDS011;44116;50.884;4.768;2022-08-19T08:23:05;10.6;;;5.0;;
58306;SDS011;44116;50.884;4.768;2022-08-19T08:25:08;9.0;;;4.9;;
58306;SDS011;44116;50.884;4.768;2022-08-19T08:27:05;8.8;;;4.3;;
58306;SDS011;44116;50.884;4.768;2022-08-19T08:29:05;6.6;;;4.4;;
58306;SDS011;44116;50.884;4.768;2022-08-19T08:31:05;7.4;;;4.2;;
58306;SDS011;44116;50.884;4.768;2022-08-19T08:33:05;8.0;;;4.4;;
58306;SDS011;44116;50.884;4.768;2022-08-19T08:35:09;8.3;;;4.7;;
58306;SDS011;44116;50.884;4.768;2022-08-19T08:37:05;8.0;;;4.2;;
58306;SDS011;44116;50.884;4.768;2022-08-19T08:39:05;8.2;;;4.4;;
58306;SDS011;44116;50.884;4.768;2022-08-19T08:41:10;6.4;;;4.1;;
58306;SDS011;44116;50.884;4.768;2022-08-19T08:43:11;7.9;;;4.6;;
58306;SDS011;44116;50.884;4.768;2022-08-19T08:45:12;8.3;;;4.2;;
58306;SDS011;44116;50.884;4.768;2022-08-19T08:47:10;10.4;;;4.4;;
58306;SDS011;44116;50.884;4.768;2022-08-19T08:49:14;8.1;;;4.2;;
58306;SDS011;44116;50.884;4.768;2022-08-19T08:51:10;8.1;;;4.5;;
58306;SDS011;44116;50.884;4.768;2022-08-19T08:53:07;9.3;;;4.8;;
58306;SDS011;44116;50.884;4.768;2022-08-19T08:55:10;8.9;;;5.0;;
58306;SDS011;44116;50.884;4.768;2022-08-19T08:57:10;8.1;;;4.9;;
58306;SDS011;44116;50.884;4.768;2022-08-19T08:59:10;7.1;;;4.8;;
58306;SDS011;44116;50.884;4.768;2022-08-19T09:01:05;8.7;;;5.2;;
58306;SDS011;44116;50.884;4.768;2022-08-19T09:03:11;8.3;;;4.7;;
58306;SDS011;44116;50.884;4.768;2022-08-19T09:05:06;7.4;;;4.9;;
58306;SDS011;44116;50.884;4.768;2022-08-19T09:07:20;7.1;;;4.3;;
58306;SDS011;44116;50.884;4.768;2022-08-19T09:09:14;8.5;;;4.4;;
58306;SDS011;44116;50.884;4.768;2022-08-19T09:11:08;8.2;;;4.5;;
58306;SDS011;44116;50.884;4.768;2022-08-19T09:13:14;8.6;;;4.7;;
58306;SDS011;44116;50.884;4.768;2022-08-19T09:15:08;8.1;;;5.0;;
58306;SDS011;44116;50.884;4.768;2022-08-19T09:17:06;8.7;;;4.7;;
58306;SDS011;44116;50.884;4.768;2022-08-19T09:19:07;7.9;;;5.0;;
58306;SDS011;44116;50.884;4.768;2022-08-19T09:21:06;7.2;;;4.5;;
58306;SDS011;44116;50.884;4.768;2022-08-19T09:23:06;7.6;;;4.4;;
58306;SDS011;44116;50.884;4.768;2022-08-19T09:25:09;7.6;;;4.5;;
58306;SDS011;44116;50.884;4.768;2022-08-19T09:27:06;9.3;;;4.3;;
58306;SDS011;44116;50.884;4.768;2022-08-19T09:29:06;7.0;;;4.1;;
58306;SDS011;44116;50.884;4.768;2022-08-19T09:31:06;9.4;;;4.2;;
58306;SDS011;44116;50.884;4.768;2022-08-19T09:33:07;7.2;;;3.9;;
58306;SDS011;44116;50.884;4.768;2022-08-19T09:35:06;7.8;;;4.4;;
58306;SDS011;44116;50.884;4.768;2022-08-19T09:37:06;8.4;;;4.5;;
58306;SDS011;44116;50.884;4.768;2022-08-19T09:39:06;6.2;;;3.8;;
58306;SDS011;44116;50.884;4.768;2022-08-19T09:41:10;6.5;;;3.6;;
58306;SDS011;44116;50.884;4.768;2022-08-19T09:43:06;7.1;;;3.8;;
58306;SDS011;44116;50.884;4.768;2022-08-19T09:45:06;6.6;;;3.5;;
58306;SDS011;44116;50.884;4.768;2022-08-19T09:47:07;6.7;;;3.9;;
58306;SDS011;44116;50.884;4.768;2022-08-19T09:49:06;6.5;;;3.8;;
58306;SDS011;44116;50.884;4.768;2022-08-19T09:51:12;6.5;;;3.5;;
58306;SDS011;44116;50.884;4.768;2022-08-19T09:53:06;7.0;;;4.0;;
58306;SDS011;44116;50.884;4.768;2022-08-19T09:55:08;9.0;;;3.9;;
58306;SDS011;44116;50.884;4.768;2022-08-19T09:57:06;6.4;;;3.6;;
58306;SDS011;44116;50.884;4.768;2022-08-19T09:59:07;7.0;;;3.7;;
58306;SDS011;44116;50.884;4.768;2022-08-19T10:01:07;7.0;;;3.2;;
58306;SDS011;44116;50.884;4.768;2022-08-19T10:03:07;4.6;;;3.0;;
58306;SDS011;44116;50.884;4.768;2022-08-19T10:05:07;7.6;;;3.3;;
58306;SDS011;44116;50.884;4.768;2022-08-19T10:07:07;6.2;;;2.9;;
58306;SDS011;44116;50.884;4.768;2022-08-19T10:09:08;5.3;;;3.2;;
58306;SDS011;44116;50.884;4.768;2022-08-19T10:11:09;7.5;;;3.3;;
58306;SDS011;44116;50.884;4.768;2022-08-19T10:13:07;5.5;;;3.0;;
58306;SDS011;44116;50.884;4.768;2022-08-19T10:15:08;6.1;;;3.5;;
58306;SDS011;44116;50.884;4.768;2022-08-19T10:17:07;6.9;;;3.6;;
58306;SDS011;44116;50.884;4.768;2022-08-19T10:19:08;6.4;;;3.5;;
58306;SDS011;44116;50.884;4.768;2022-08-19T10:21:10;7.5;;;3.7;;
58306;SDS011;44116;50.884;4.768;2022-08-19T10:23:08;6.4;;;4.2;;
58306;SDS011;44116;50.884;4.768;2022-08-19T10:25:08;6.9;;;3.5;;
58306;SDS011;44116;50.884;4.768;2022-08-19T10:27:08;5.4;;;3.4;;
58306;SDS011;44116;50.884;4.768;2022-08-19T10:29:08;6.8;;;3.8;;
58306;SDS011;44116;50.884;4.768;2022-08-19T10:31:13;7.1;;;3.6;;
58306;SDS011;44116;50.884;4.768;2022-08-19T10:33:09;8.0;;;4.0;;
58306;SDS011;44116;50.884;4.768;2022-08-19T10:35:08;7.3;;;4.1;;
58306;SDS011;44116;50.884;4.768;2022-08-19T10:37:08;8.4;;;3.7;;
58306;SDS011;44116;50.884;4.768;2022-08-19T10:39:09;6.8;;;3.8;;
58306;SDS011;44116;50.884;4.768;2022-08-19T10:41:12;7.3;;;4.2;;
58306;SDS011;44116;50.884;4.768;2022-08-19T10:43:08;5.3;;;3.7;;
58306;SDS011;44116;50.884;4.768;2022-08-19T10:45:09;7.2;;;3.8;;
58306;SDS011;44116;50.884;4.768;2022-08-19T10:47:10;6.1;;;3.9;;
58306;SDS011;44116;50.884;4.768;2022-08-19T10:49:10;7.5;;;4.1;;
58306;SDS011;44116;50.884;4.768;2022-08-19T10:51:09;5.5;;;3.6;;
58306;SDS011;44116;50.884;4.768;2022-08-19T10:55:09;6.2;;;3.7;;
58306;SDS011;44116;50.884;4.768;2022-08-19T10:57:09;5.0;;;3.4;;
58306;SDS011;44116;50.884;4.768;2022-08-19T10:59:09;7.0;;;3.8;;
58306;SDS011;44116;50.884;4.768;2022-08-19T11:03:09;6.5;;;3.6;;
58306;SDS011;44116;50.884;4.768;2022-08-19T11:05:09;8.8;;;4.2;;
58306;SDS011;44116;50.884;4.768;2022-08-19T11:07:09;4.7;;;3.3;;
58306;SDS011;44116;50.884;4.768;2022-08-19T11:09:10;6.0;;;3.4;;
58306;SDS011;44116;50.884;4.768;2022-08-19T11:11:10;7.0;;;4.5;;
58306;SDS011;44116;50.884;4.768;2022-08-19T11:13:10;6.9;;;3.8;;
58306;SDS011;44116;50.884;4.768;2022-08-19T11:15:10;8.1;;;3.3;;
58306;SDS011;44116;50.884;4.768;2022-08-19T11:17:10;5.9;;;3.4;;
58306;SDS011;44116;50.884;4.768;2022-08-19T11:19:11;7.0;;;3.0;;
58306;SDS011;44116;50.884;4.768;2022-08-19T11:21:12;6.8;;;3.5;;
58306;SDS011;44116;50.884;4.768;2022-08-19T11:23:10;5.6;;;3.7;;
58306;SDS011;44116;50.884;4.768;2022-08-19T11:25:11;4.4;;;3.3;;
58306;SDS011;44116;50.884;4.768;2022-08-19T11:27:10;4.4;;;3.0;;
58306;SDS011;44116;50.884;4.768;2022-08-19T11:29:12;6.8;;;3.4;;
58306;SDS011;44116;50.884;4.768;2022-08-19T11:31:11;5.5;;;2.8;;
58306;SDS011;44116;50.884;4.768;2022-08-19T11:33:11;5.7;;;2.9;;
58306;SDS011;44116;50.884;4.768;2022-08-19T11:39:13;4.2;;;3.1;;
58306;SDS011;44116;50.884;4.768;2022-08-19T11:43:11;5.1;;;2.8;;
58306;SDS011;44116;50.884;4.768;2022-08-19T11:45:11;6.6;;;3.0;;
58306;SDS011;44116;50.884;4.768;2022-08-19T11:47:12;4.6;;;2.6;;
58306;SDS011;44116;50.884;4.768;2022-08-19T11:49:12;5.4;;;3.0;;
58306;SDS011;44116;50.884;4.768;2022-08-19T11:51:14;4.9;;;3.3;;
58306;SDS011;44116;50.884;4.768;2022-08-19T11:53:12;5.1;;;3.1;;
58306;SDS011;44116;50.884;4.768;2022-08-19T11:57:12;6.2;;;3.2;;
58306;SDS011;44116;50.884;4.768;2022-08-19T11:59:13;6.8;;;3.5;;
58306;SDS011;44116;50.884;4.768;2022-08-19T12:01:14;7.0;;;3.7;;
58306;SDS011;44116;50.884;4.768;2022-08-19T12:03:13;4.4;;;3.1;;
58306;SDS011;44116;50.884;4.768;2022-08-19T12:05:12;5.1;;;3.4;;
58306;SDS011;44116;50.884;4.768;2022-08-19T12:07:12;6.8;;;3.8;;
58306;SDS011;44116;50.884;4.768;2022-08-19T12:09:13;6.1;;;4.0;;
58306;SDS011;44116;50.884;4.768;2022-08-19T12:11:13;7.2;;;3.9;;
58306;SDS011;44116;50.884;4.768;2022-08-19T12:13:13;7.7;;;4.2;;
58306;SDS011;44116;50.884;4.768;2022-08-19T12:15:13;5.4;;;3.7;;
58306;SDS011;44116;50.884;4.768;2022-08-19T12:17:13;5.7;;;3.9;;
58306;SDS011;44116;50.884;4.768;2022-08-19T12:19:13;6.8;;;4.5;;
58306;SDS011;44116;50.884;4.768;2022-08-19T12:21:14;7.1;;;4.3;;
58306;SDS011;44116;50.884;4.768;2022-08-19T12:23:13;5.1;;;4.0;;
58306;SDS011;44116;50.884;4.768;2022-08-19T12:25:13;6.8;;;4.2;;
58306;SDS011;44116;50.884;4.768;2022-08-19T12:27:13;7.0;;;4.7;;
58306;SDS011;44116;50.884;4.768;2022-08-19T12:31:14;11.9;;;5.6;;
58306;SDS011;44116;50.884;4.768;2022-08-19T12:35:14;9.9;;;5.5;;
58306;SDS011;44116;50.884;4.768;2022-08-19T12:37:14;9.2;;;5.7;;
58306;SDS011;44116;50.884;4.768;2022-08-19T12:39:14;7.7;;;5.9;;
58306;SDS011;44116;50.884;4.768;2022-08-19T12:41:16;9.2;;;5.7;;
58306;SDS011;44116;50.884;4.768;2022-08-19T12:43:15;9.3;;;6.0;;
58306;SDS011;44116;50.884;4.768;2022-08-19T12:45:14;9.1;;;5.5;;
58306;SDS011;44116;50.884;4.768;2022-08-19T12:47:14;10.3;;;5.3;;
58306;SDS011;44116;50.884;4.768;2022-08-19T12:49:15;7.3;;;5.7;;